Orleans, Indiana
Current Conditions -  °F | °C
As of 4:53 AM on Saturday 25 Oct 2014 (Local Time) from KBMG Reporting Station
Overcast Overcast  
Wind Chill: 55°   Ceiling: 3700
Heat Index: 55°   Visibility: 9mi
Dew Point: 52°   Wind: 6mph
Humidity: 89%   Direction: 220°SW
Pressure: 29.99"   Gusts: NA
Location:  38.66°N, 86.45°W
Report Text: KBMG 250853Z 22005KT 9SM BKN037 OVC047 13/11 A2999 RMK AO2 SLP152 T01280111 56013
Loading
Personal Weather Stations






























Interactive Weather Map
Tropical Storm Tracking
New forecast layout! Learn more

10-Day Weather Forecast

Advertisements
Track Severe Weather on mobile